sensor_id;sensor_type;location;lat;lon;timestamp;P1;durP1;ratioP1;P2;durP2;ratioP2
42118;SDS011;27783;42.782;23.274;2024-03-07T00:02:04;50.33;;;36.67;;
42118;SDS011;27783;42.782;23.274;2024-03-07T00:04:29;51.90;;;36.45;;
42118;SDS011;27783;42.782;23.274;2024-03-07T00:06:55;53.70;;;37.40;;
42118;SDS011;27783;42.782;23.274;2024-03-07T00:09:20;50.45;;;36.25;;
42118;SDS011;27783;42.782;23.274;2024-03-07T00:11:49;55.55;;;41.25;;
42118;SDS011;27783;42.782;23.274;2024-03-07T00:14:15;56.40;;;41.70;;
42118;SDS011;27783;42.782;23.274;2024-03-07T00:16:41;50.35;;;37.28;;
42118;SDS011;27783;42.782;23.274;2024-03-07T00:19:06;49.67;;;35.72;;
42118;SDS011;27783;42.782;23.274;2024-03-07T00:21:32;49.72;;;38.72;;
42118;SDS011;27783;42.782;23.274;2024-03-07T00:23:57;50.47;;;36.92;;
42118;SDS011;27783;42.782;23.274;2024-03-07T00:26:24;58.53;;;38.93;;
42118;SDS011;27783;42.782;23.274;2024-03-07T00:28:51;51.05;;;37.78;;
42118;SDS011;27783;42.782;23.274;2024-03-07T00:31:17;53.35;;;41.72;;
42118;SDS011;27783;42.782;23.274;2024-03-07T00:33:43;57.72;;;41.45;;
42118;SDS011;27783;42.782;23.274;2024-03-07T00:36:09;53.17;;;38.80;;
42118;SDS011;27783;42.782;23.274;2024-03-07T00:38:35;56.67;;;40.15;;
42118;SDS011;27783;42.782;23.274;2024-03-07T00:41:00;58.30;;;39.70;;
42118;SDS011;27783;42.782;23.274;2024-03-07T00:43:26;54.67;;;39.38;;
42118;SDS011;27783;42.782;23.274;2024-03-07T00:45:51;58.78;;;41.53;;
42118;SDS011;27783;42.782;23.274;2024-03-07T00:48:16;56.15;;;42.90;;
42118;SDS011;27783;42.782;23.274;2024-03-07T00:50:42;60.50;;;41.42;;
42118;SDS011;27783;42.782;23.274;2024-03-07T00:53:08;57.33;;;40.58;;
42118;SDS011;27783;42.782;23.274;2024-03-07T00:55:34;55.22;;;39.33;;
42118;SDS011;27783;42.782;23.274;2024-03-07T00:57:59;53.33;;;38.13;;
42118;SDS011;27783;42.782;23.274;2024-03-07T01:00:24;57.67;;;40.20;;
42118;SDS011;27783;42.782;23.274;2024-03-07T01:02:50;50.90;;;37.38;;
42118;SDS011;27783;42.782;23.274;2024-03-07T01:05:18;54.55;;;38.92;;
42118;SDS011;27783;42.782;23.274;2024-03-07T01:07:44;57.85;;;38.35;;
42118;SDS011;27783;42.782;23.274;2024-03-07T01:10:12;54.63;;;38.97;;
42118;SDS011;27783;42.782;23.274;2024-03-07T01:12:39;57.85;;;41.08;;
42118;SDS011;27783;42.782;23.274;2024-03-07T01:15:04;52.75;;;37.92;;
42118;SDS011;27783;42.782;23.274;2024-03-07T01:17:30;51.55;;;34.95;;
42118;SDS011;27783;42.782;23.274;2024-03-07T01:19:56;56.05;;;39.05;;
42118;SDS011;27783;42.782;23.274;2024-03-07T01:22:23;54.13;;;37.10;;
42118;SDS011;27783;42.782;23.274;2024-03-07T01:24:48;51.45;;;38.38;;
42118;SDS011;27783;42.782;23.274;2024-03-07T01:27:15;53.63;;;36.83;;
42118;SDS011;27783;42.782;23.274;2024-03-07T01:29:41;52.35;;;37.78;;
42118;SDS011;27783;42.782;23.274;2024-03-07T01:32:06;53.53;;;36.10;;
42118;SDS011;27783;42.782;23.274;2024-03-07T01:34:32;51.40;;;36.90;;
42118;SDS011;27783;42.782;23.274;2024-03-07T01:36:57;49.90;;;34.45;;
42118;SDS011;27783;42.782;23.274;2024-03-07T01:39:23;53.17;;;37.28;;
42118;SDS011;27783;42.782;23.274;2024-03-07T01:41:48;48.67;;;35.40;;
42118;SDS011;27783;42.782;23.274;2024-03-07T01:44:14;48.40;;;33.65;;
42118;SDS011;27783;42.782;23.274;2024-03-07T01:46:39;46.13;;;34.30;;
42118;SDS011;27783;42.782;23.274;2024-03-07T01:49:06;56.00;;;36.40;;
42118;SDS011;27783;42.782;23.274;2024-03-07T01:51:32;46.78;;;31.83;;
42118;SDS011;27783;42.782;23.274;2024-03-07T01:53:59;43.03;;;32.07;;
42118;SDS011;27783;42.782;23.274;2024-03-07T01:56:25;47.70;;;32.80;;
42118;SDS011;27783;42.782;23.274;2024-03-07T01:58:50;43.50;;;32.53;;
42118;SDS011;27783;42.782;23.274;2024-03-07T02:01:18;43.08;;;29.83;;
42118;SDS011;27783;42.782;23.274;2024-03-07T02:03:44;36.50;;;29.92;;
42118;SDS011;27783;42.782;23.274;2024-03-07T02:06:09;38.05;;;29.70;;
42118;SDS011;27783;42.782;23.274;2024-03-07T02:08:35;40.78;;;31.25;;
42118;SDS011;27783;42.782;23.274;2024-03-07T02:11:01;47.97;;;31.67;;
42118;SDS011;27783;42.782;23.274;2024-03-07T02:13:26;41.05;;;32.30;;
42118;SDS011;27783;42.782;23.274;2024-03-07T02:15:52;41.47;;;29.45;;
42118;SDS011;27783;42.782;23.274;2024-03-07T02:18:19;82.53;;;54.40;;
42118;SDS011;27783;42.782;23.274;2024-03-07T02:20:45;46.38;;;32.72;;
42118;SDS011;27783;42.782;23.274;2024-03-07T02:23:11;43.72;;;31.15;;
42118;SDS011;27783;42.782;23.274;2024-03-07T02:25:37;48.97;;;33.25;;
42118;SDS011;27783;42.782;23.274;2024-03-07T02:28:03;51.28;;;32.45;;
42118;SDS011;27783;42.782;23.274;2024-03-07T02:30:29;54.97;;;34.25;;
42118;SDS011;27783;42.782;23.274;2024-03-07T02:32:57;45.67;;;30.63;;
42118;SDS011;27783;42.782;23.274;2024-03-07T02:35:34;42.35;;;30.88;;
42118;SDS011;27783;42.782;23.274;2024-03-07T02:38:01;40.95;;;29.70;;
42118;SDS011;27783;42.782;23.274;2024-03-07T02:40:28;47.00;;;32.75;;
42118;SDS011;27783;42.782;23.274;2024-03-07T02:42:53;54.92;;;38.17;;
42118;SDS011;27783;42.782;23.274;2024-03-07T02:45:19;49.08;;;34.83;;
42118;SDS011;27783;42.782;23.274;2024-03-07T02:47:44;45.85;;;31.10;;
42118;SDS011;27783;42.782;23.274;2024-03-07T02:50:09;46.13;;;31.67;;
42118;SDS011;27783;42.782;23.274;2024-03-07T02:52:35;48.53;;;31.98;;
42118;SDS011;27783;42.782;23.274;2024-03-07T02:55:00;40.67;;;28.75;;
42118;SDS011;27783;42.782;23.274;2024-03-07T02:57:28;34.65;;;25.45;;
42118;SDS011;27783;42.782;23.274;2024-03-07T02:59:53;44.30;;;27.60;;
42118;SDS011;27783;42.782;23.274;2024-03-07T03:02:18;31.08;;;23.33;;
42118;SDS011;27783;42.782;23.274;2024-03-07T03:04:44;33.88;;;23.65;;
42118;SDS011;27783;42.782;23.274;2024-03-07T03:07:09;40.28;;;31.10;;
42118;SDS011;27783;42.782;23.274;2024-03-07T03:09:35;39.08;;;29.75;;
42118;SDS011;27783;42.782;23.274;2024-03-07T03:12:04;64.50;;;39.90;;
42118;SDS011;27783;42.782;23.274;2024-03-07T03:14:30;28.67;;;21.48;;
42118;SDS011;27783;42.782;23.274;2024-03-07T03:16:56;16.55;;;13.90;;
42118;SDS011;27783;42.782;23.274;2024-03-07T03:19:21;12.40;;;11.10;;
42118;SDS011;27783;42.782;23.274;2024-03-07T03:21:48;10.65;;;9.57;;
42118;SDS011;27783;42.782;23.274;2024-03-07T03:24:13;11.48;;;10.15;;
42118;SDS011;27783;42.782;23.274;2024-03-07T03:26:40;10.77;;;9.77;;
42118;SDS011;27783;42.782;23.274;2024-03-07T03:29:07;13.30;;;11.40;;
42118;SDS011;27783;42.782;23.274;2024-03-07T03:35:36;20.02;;;16.58;;
42118;SDS011;27783;42.782;23.274;2024-03-07T03:38:07;15.30;;;13.10;;
42118;SDS011;27783;42.782;23.274;2024-03-07T03:40:38;15.20;;;12.23;;
42118;SDS011;27783;42.782;23.274;2024-03-07T03:43:03;17.17;;;12.32;;
42118;SDS011;27783;42.782;23.274;2024-03-07T03:45:30;12.25;;;11.00;;
42118;SDS011;27783;42.782;23.274;2024-03-07T03:48:00;11.73;;;10.52;;
42118;SDS011;27783;42.782;23.274;2024-03-07T03:50:25;13.13;;;10.90;;
42118;SDS011;27783;42.782;23.274;2024-03-07T03:52:51;9.80;;;8.80;;
42118;SDS011;27783;42.782;23.274;2024-03-07T03:55:16;9.02;;;8.13;;
42118;SDS011;27783;42.782;23.274;2024-03-07T03:57:43;13.82;;;8.35;;
42118;SDS011;27783;42.782;23.274;2024-03-07T04:00:10;6.55;;;5.85;;
42118;SDS011;27783;42.782;23.274;2024-03-07T04:02:43;7.85;;;6.35;;
42118;SDS011;27783;42.782;23.274;2024-03-07T04:05:15;9.25;;;6.55;;
42118;SDS011;27783;42.782;23.274;2024-03-07T04:08:05;5.75;;;4.70;;
42118;SDS011;27783;42.782;23.274;2024-03-07T04:10:31;3.92;;;3.53;;
42118;SDS011;27783;42.782;23.274;2024-03-07T04:13:00;5.00;;;3.03;;
42118;SDS011;27783;42.782;23.274;2024-03-07T04:15:25;3.33;;;3.03;;
42118;SDS011;27783;42.782;23.274;2024-03-07T04:17:52;4.50;;;2.65;;
42118;SDS011;27783;42.782;23.274;2024-03-07T04:20:19;3.28;;;2.80;;
42118;SDS011;27783;42.782;23.274;2024-03-07T04:22:47;4.55;;;3.42;;
42118;SDS011;27783;42.782;23.274;2024-03-07T04:25:14;5.68;;;3.20;;
42118;SDS011;27783;42.782;23.274;2024-03-07T04:27:39;3.67;;;3.30;;
42118;SDS011;27783;42.782;23.274;2024-03-07T04:30:05;6.03;;;3.13;;
42118;SDS011;27783;42.782;23.274;2024-03-07T04:32:36;4.13;;;3.70;;
42118;SDS011;27783;42.782;23.274;2024-03-07T04:35:07;3.53;;;2.80;;
42118;SDS011;27783;42.782;23.274;2024-03-07T04:37:33;3.38;;;2.70;;
42118;SDS011;27783;42.782;23.274;2024-03-07T04:40:05;4.22;;;3.40;;
42118;SDS011;27783;42.782;23.274;2024-03-07T04:42:48;5.03;;;4.53;;
42118;SDS011;27783;42.782;23.274;2024-03-07T04:45:16;3.92;;;3.53;;
42118;SDS011;27783;42.782;23.274;2024-03-07T04:47:43;4.30;;;3.53;;
42118;SDS011;27783;42.782;23.274;2024-03-07T04:50:10;4.82;;;4.35;;
42118;SDS011;27783;42.782;23.274;2024-03-07T04:52:41;4.80;;;4.25;;
42118;SDS011;27783;42.782;23.274;2024-03-07T04:55:09;4.63;;;4.13;;
42118;SDS011;27783;42.782;23.274;2024-03-07T04:57:39;4.95;;;4.35;;
42118;SDS011;27783;42.782;23.274;2024-03-07T05:00:06;5.78;;;5.05;;
42118;SDS011;27783;42.782;23.274;2024-03-07T05:02:33;6.30;;;5.50;;
42118;SDS011;27783;42.782;23.274;2024-03-07T05:05:07;8.07;;;6.05;;
42118;SDS011;27783;42.782;23.274;2024-03-07T05:07:32;6.78;;;5.70;;
42118;SDS011;27783;42.782;23.274;2024-03-07T05:09:58;8.93;;;7.45;;
42118;SDS011;27783;42.782;23.274;2024-03-07T05:12:23;7.57;;;6.88;;
42118;SDS011;27783;42.782;23.274;2024-03-07T05:14:49;7.43;;;6.70;;
42118;SDS011;27783;42.782;23.274;2024-03-07T05:17:14;8.75;;;7.82;;
42118;SDS011;27783;42.782;23.274;2024-03-07T05:19:39;8.05;;;7.25;;
42118;SDS011;27783;42.782;23.274;2024-03-07T05:22:05;7.07;;;6.45;;
42118;SDS011;27783;42.782;23.274;2024-03-07T05:24:31;8.43;;;7.65;;
42118;SDS011;27783;42.782;23.274;2024-03-07T05:26:58;8.35;;;7.20;;
42118;SDS011;27783;42.782;23.274;2024-03-07T05:29:24;7.32;;;6.35;;
42118;SDS011;27783;42.782;23.274;2024-03-07T05:31:49;8.18;;;7.38;;
42118;SDS011;27783;42.782;23.274;2024-03-07T05:34:18;7.78;;;7.05;;
42118;SDS011;27783;42.782;23.274;2024-03-07T05:36:44;7.00;;;5.80;;
42118;SDS011;27783;42.782;23.274;2024-03-07T05:39:15;5.90;;;5.30;;
42118;SDS011;27783;42.782;23.274;2024-03-07T05:41:43;6.25;;;5.47;;
42118;SDS011;27783;42.782;23.274;2024-03-07T05:44:10;5.88;;;5.32;;
42118;SDS011;27783;42.782;23.274;2024-03-07T05:46:39;7.43;;;6.50;;
42118;SDS011;27783;42.782;23.274;2024-03-07T05:49:13;7.70;;;6.93;;
42118;SDS011;27783;42.782;23.274;2024-03-07T05:51:39;8.10;;;6.60;;
42118;SDS011;27783;42.782;23.274;2024-03-07T05:54:10;6.53;;;5.93;;
42118;SDS011;27783;42.782;23.274;2024-03-07T05:56:38;7.88;;;5.50;;
42118;SDS011;27783;42.782;23.274;2024-03-07T05:59:04;4.63;;;4.18;;
42118;SDS011;27783;42.782;23.274;2024-03-07T06:01:34;4.60;;;4.15;;
42118;SDS011;27783;42.782;23.274;2024-03-07T06:04:04;4.25;;;3.85;;
42118;SDS011;27783;42.782;23.274;2024-03-07T06:06:31;4.15;;;3.75;;
42118;SDS011;27783;42.782;23.274;2024-03-07T06:09:01;4.70;;;3.35;;
42118;SDS011;27783;42.782;23.274;2024-03-07T06:11:41;4.55;;;3.63;;
42118;SDS011;27783;42.782;23.274;2024-03-07T06:14:09;3.78;;;3.45;;
42118;SDS011;27783;42.782;23.274;2024-03-07T06:16:38;3.97;;;2.92;;
42118;SDS011;27783;42.782;23.274;2024-03-07T06:19:06;5.22;;;3.33;;
42118;SDS011;27783;42.782;23.274;2024-03-07T06:21:34;4.17;;;3.20;;
42118;SDS011;27783;42.782;23.274;2024-03-07T06:24:04;3.80;;;3.03;;
42118;SDS011;27783;42.782;23.274;2024-03-07T06:26:33;3.60;;;3.25;;
42118;SDS011;27783;42.782;23.274;2024-03-07T06:29:10;3.47;;;2.97;;
42118;SDS011;27783;42.782;23.274;2024-03-07T06:31:38;3.88;;;3.47;;
42118;SDS011;27783;42.782;23.274;2024-03-07T06:34:03;3.45;;;3.00;;
42118;SDS011;27783;42.782;23.274;2024-03-07T06:36:29;3.30;;;3.00;;
42118;SDS011;27783;42.782;23.274;2024-03-07T06:38:54;4.50;;;3.35;;
42118;SDS011;27783;42.782;23.274;2024-03-07T06:41:20;3.58;;;3.15;;
42118;SDS011;27783;42.782;23.274;2024-03-07T06:43:46;3.85;;;3.55;;
42118;SDS011;27783;42.782;23.274;2024-03-07T06:46:11;3.38;;;3.08;;
42118;SDS011;27783;42.782;23.274;2024-03-07T06:48:42;3.00;;;2.70;;
42118;SDS011;27783;42.782;23.274;2024-03-07T06:51:08;3.17;;;2.60;;
42118;SDS011;27783;42.782;23.274;2024-03-07T06:53:33;3.55;;;2.92;;
42118;SDS011;27783;42.782;23.274;2024-03-07T06:55:59;3.10;;;2.58;;
42118;SDS011;27783;42.782;23.274;2024-03-07T06:58:26;2.33;;;1.90;;
42118;SDS011;27783;42.782;23.274;2024-03-07T07:00:51;2.88;;;2.22;;
42118;SDS011;27783;42.782;23.274;2024-03-07T07:05:45;1.88;;;1.50;;
42118;SDS011;27783;42.782;23.274;2024-03-07T07:08:11;3.28;;;1.92;;
42118;SDS011;27783;42.782;23.274;2024-03-07T07:13:05;4.95;;;3.38;;
42118;SDS011;27783;42.782;23.274;2024-03-07T07:15:31;2.25;;;2.05;;
42118;SDS011;27783;42.782;23.274;2024-03-07T07:17:57;3.38;;;2.20;;
42118;SDS011;27783;42.782;23.274;2024-03-07T07:20:24;5.30;;;3.50;;
42118;SDS011;27783;42.782;23.274;2024-03-07T07:22:49;3.97;;;3.13;;
42118;SDS011;27783;42.782;23.274;2024-03-07T07:25:15;2.50;;;2.30;;
42118;SDS011;27783;42.782;23.274;2024-03-07T07:27:51;3.33;;;2.38;;
42118;SDS011;27783;42.782;23.274;2024-03-07T07:30:18;3.00;;;2.78;;
42118;SDS011;27783;42.782;23.274;2024-03-07T07:32:47;3.15;;;2.40;;
42118;SDS011;27783;42.782;23.274;2024-03-07T07:35:13;3.67;;;2.63;;
42118;SDS011;27783;42.782;23.274;2024-03-07T07:37:44;2.30;;;2.10;;
42118;SDS011;27783;42.782;23.274;2024-03-07T07:40:11;3.45;;;2.80;;
42118;SDS011;27783;42.782;23.274;2024-03-07T07:42:40;2.97;;;2.28;;
42118;SDS011;27783;42.782;23.274;2024-03-07T07:45:07;3.03;;;2.55;;
42118;SDS011;27783;42.782;23.274;2024-03-07T07:47:40;2.63;;;2.10;;
42118;SDS011;27783;42.782;23.274;2024-03-07T07:50:10;2.75;;;1.95;;
42118;SDS011;27783;42.782;23.274;2024-03-07T07:52:40;3.30;;;2.55;;
42118;SDS011;27783;42.782;23.274;2024-03-07T07:55:06;2.33;;;2.05;;
42118;SDS011;27783;42.782;23.274;2024-03-07T07:57:41;5.95;;;2.72;;
42118;SDS011;27783;42.782;23.274;2024-03-07T08:00:08;3.92;;;2.35;;
42118;SDS011;27783;42.782;23.274;2024-03-07T08:02:34;3.17;;;2.60;;
42118;SDS011;27783;42.782;23.274;2024-03-07T08:05:00;2.92;;;2.63;;
42118;SDS011;27783;42.782;23.274;2024-03-07T08:07:26;2.90;;;2.50;;
42118;SDS011;27783;42.782;23.274;2024-03-07T08:09:51;3.58;;;2.70;;
42118;SDS011;27783;42.782;23.274;2024-03-07T08:12:16;3.92;;;2.67;;
42118;SDS011;27783;42.782;23.274;2024-03-07T08:14:42;2.50;;;2.20;;
42118;SDS011;27783;42.782;23.274;2024-03-07T08:17:09;5.20;;;2.30;;
42118;SDS011;27783;42.782;23.274;2024-03-07T08:19:36;2.45;;;2.08;;
42118;SDS011;27783;42.782;23.274;2024-03-07T08:22:01;2.92;;;2.63;;
42118;SDS011;27783;42.782;23.274;2024-03-07T08:24:26;2.28;;;1.90;;
42118;SDS011;27783;42.782;23.274;2024-03-07T08:26:53;2.45;;;1.98;;
42118;SDS011;27783;42.782;23.274;2024-03-07T08:29:21;2.70;;;2.40;;
42118;SDS011;27783;42.782;23.274;2024-03-07T08:31:47;2.60;;;2.17;;
42118;SDS011;27783;42.782;23.274;2024-03-07T08:34:12;3.30;;;2.60;;
42118;SDS011;27783;42.782;23.274;2024-03-07T08:36:38;3.70;;;3.40;;
42118;SDS011;27783;42.782;23.274;2024-03-07T08:39:04;2.10;;;1.90;;
42118;SDS011;27783;42.782;23.274;2024-03-07T08:41:30;2.47;;;1.55;;
42118;SDS011;27783;42.782;23.274;2024-03-07T08:43:56;1.83;;;1.48;;
42118;SDS011;27783;42.782;23.274;2024-03-07T08:46:22;2.33;;;2.10;;
42118;SDS011;27783;42.782;23.274;2024-03-07T08:48:47;1.85;;;1.55;;
42118;SDS011;27783;42.782;23.274;2024-03-07T08:51:13;2.28;;;2.05;;
42118;SDS011;27783;42.782;23.274;2024-03-07T08:53:40;11.75;;;7.97;;
42118;SDS011;27783;42.782;23.274;2024-03-07T08:56:05;2.83;;;2.08;;
42118;SDS011;27783;42.782;23.274;2024-03-07T08:58:31;2.85;;;2.08;;
42118;SDS011;27783;42.782;23.274;2024-03-07T09:00:57;2.53;;;2.33;;
42118;SDS011;27783;42.782;23.274;2024-03-07T09:03:23;4.78;;;1.98;;
42118;SDS011;27783;42.782;23.274;2024-03-07T09:05:50;10.43;;;5.40;;
42118;SDS011;27783;42.782;23.274;2024-03-07T09:08:17;13.90;;;12.65;;
42118;SDS011;27783;42.782;23.274;2024-03-07T09:10:42;3.92;;;3.53;;
42118;SDS011;27783;42.782;23.274;2024-03-07T09:13:07;3.53;;;2.50;;
42118;SDS011;27783;42.782;23.274;2024-03-07T09:15:33;10.05;;;4.53;;
42118;SDS011;27783;42.782;23.274;2024-03-07T09:17:58;1.88;;;1.75;;
42118;SDS011;27783;42.782;23.274;2024-03-07T09:22:51;1.77;;;1.20;;
42118;SDS011;27783;42.782;23.274;2024-03-07T09:25:19;1.58;;;1.38;;
42118;SDS011;27783;42.782;23.274;2024-03-07T09:27:44;2.85;;;1.58;;
42118;SDS011;27783;42.782;23.274;2024-03-07T09:30:10;3.85;;;1.40;;
42118;SDS011;27783;42.782;23.274;2024-03-07T09:32:49;2.00;;;1.52;;
42118;SDS011;27783;42.782;23.274;2024-03-07T09:35:14;2.25;;;1.98;;
42118;SDS011;27783;42.782;23.274;2024-03-07T09:37:42;1.70;;;1.58;;
42118;SDS011;27783;42.782;23.274;2024-03-07T09:40:09;2.20;;;1.85;;
42118;SDS011;27783;42.782;23.274;2024-03-07T09:42:40;3.47;;;2.17;;
42118;SDS011;27783;42.782;23.274;2024-03-07T09:45:07;80.70;;;34.83;;
42118;SDS011;27783;42.782;23.274;2024-03-07T09:50:01;30.55;;;17.20;;
42118;SDS011;27783;42.782;23.274;2024-03-07T09:52:26;38.75;;;24.02;;
42118;SDS011;27783;42.782;23.274;2024-03-07T09:54:52;38.47;;;25.17;;
42118;SDS011;27783;42.782;23.274;2024-03-07T09:57:18;36.28;;;20.45;;
42118;SDS011;27783;42.782;23.274;2024-03-07T09:59:44;21.98;;;15.77;;
42118;SDS011;27783;42.782;23.274;2024-03-07T10:02:11;5.18;;;4.07;;
42118;SDS011;27783;42.782;23.274;2024-03-07T10:04:43;8.13;;;5.95;;
42118;SDS011;27783;42.782;23.274;2024-03-07T10:07:14;8.23;;;5.70;;
42118;SDS011;27783;42.782;23.274;2024-03-07T10:09:41;3.42;;;3.13;;
42118;SDS011;27783;42.782;23.274;2024-03-07T10:12:07;3.45;;;3.15;;
42118;SDS011;27783;42.782;23.274;2024-03-07T10:14:47;6.00;;;5.40;;
42118;SDS011;27783;42.782;23.274;2024-03-07T10:17:14;4.40;;;3.20;;
42118;SDS011;27783;42.782;23.274;2024-03-07T10:19:40;3.13;;;2.83;;
42118;SDS011;27783;42.782;23.274;2024-03-07T10:22:06;4.43;;;3.58;;
42118;SDS011;27783;42.782;23.274;2024-03-07T10:24:31;3.53;;;3.22;;
42118;SDS011;27783;42.782;23.274;2024-03-07T10:26:57;5.40;;;5.00;;
42118;SDS011;27783;42.782;23.274;2024-03-07T10:29:24;3.58;;;3.28;;
42118;SDS011;27783;42.782;23.274;2024-03-07T10:31:50;6.05;;;5.47;;
42118;SDS011;27783;42.782;23.274;2024-03-07T10:34:15;6.13;;;5.18;;
42118;SDS011;27783;42.782;23.274;2024-03-07T10:36:42;3.83;;;3.53;;
42118;SDS011;27783;42.782;23.274;2024-03-07T10:39:08;4.70;;;4.30;;
42118;SDS011;27783;42.782;23.274;2024-03-07T10:41:48;3.53;;;3.22;;
42118;SDS011;27783;42.782;23.274;2024-03-07T10:44:18;3.60;;;3.30;;
42118;SDS011;27783;42.782;23.274;2024-03-07T10:46:46;5.47;;;4.28;;
42118;SDS011;27783;42.782;23.274;2024-03-07T10:49:18;3.40;;;3.10;;
42118;SDS011;27783;42.782;23.274;2024-03-07T10:51:46;4.43;;;3.97;;
42118;SDS011;27783;42.782;23.274;2024-03-07T10:57:23;3.85;;;3.45;;
42118;SDS011;27783;42.782;23.274;2024-03-07T10:59:57;4.97;;;4.57;;
42118;SDS011;27783;42.782;23.274;2024-03-07T11:02:45;5.32;;;4.88;;
42118;SDS011;27783;42.782;23.274;2024-03-07T11:05:12;6.55;;;6.00;;
42118;SDS011;27783;42.782;23.274;2024-03-07T11:07:40;4.18;;;3.88;;
42118;SDS011;27783;42.782;23.274;2024-03-07T11:10:07;4.32;;;3.92;;
42118;SDS011;27783;42.782;23.274;2024-03-07T11:12:36;4.35;;;3.95;;
42118;SDS011;27783;42.782;23.274;2024-03-07T11:15:06;3.88;;;3.58;;
42118;SDS011;27783;42.782;23.274;2024-03-07T11:17:40;4.80;;;4.40;;
42118;SDS011;27783;42.782;23.274;2024-03-07T11:22:50;5.45;;;3.88;;
42118;SDS011;27783;42.782;23.274;2024-03-07T11:25:19;5.40;;;4.22;;
42118;SDS011;27783;42.782;23.274;2024-03-07T11:27:53;3.80;;;3.33;;
42118;SDS011;27783;42.782;23.274;2024-03-07T11:30:21;4.43;;;4.03;;
42118;SDS011;27783;42.782;23.274;2024-03-07T11:32:47;4.70;;;4.28;;
42118;SDS011;27783;42.782;23.274;2024-03-07T11:35:15;3.97;;;3.63;;
42118;SDS011;27783;42.782;23.274;2024-03-07T11:37:44;4.43;;;3.25;;
42118;SDS011;27783;42.782;23.274;2024-03-07T11:40:12;4.63;;;3.25;;
42118;SDS011;27783;42.782;23.274;2024-03-07T11:42:47;4.05;;;3.75;;
42118;SDS011;27783;42.782;23.274;2024-03-07T11:45:14;3.17;;;2.88;;
42118;SDS011;27783;42.782;23.274;2024-03-07T11:47:50;3.90;;;3.28;;
42118;SDS011;27783;42.782;23.274;2024-03-07T11:50:25;7.18;;;6.47;;
42118;SDS011;27783;42.782;23.274;2024-03-07T11:52:54;4.20;;;3.85;;
42118;SDS011;27783;42.782;23.274;2024-03-07T11:55:21;4.35;;;3.95;;
42118;SDS011;27783;42.782;23.274;2024-03-07T11:57:47;3.15;;;2.85;;
42118;SDS011;27783;42.782;23.274;2024-03-07T12:00:14;3.50;;;3.15;;
42118;SDS011;27783;42.782;23.274;2024-03-07T12:02:40;2.67;;;2.30;;
42118;SDS011;27783;42.782;23.274;2024-03-07T12:05:08;2.60;;;2.33;;
42118;SDS011;27783;42.782;23.274;2024-03-07T12:07:34;2.38;;;2.17;;
42118;SDS011;27783;42.782;23.274;2024-03-07T12:10:00;2.40;;;2.20;;
42118;SDS011;27783;42.782;23.274;2024-03-07T12:12:30;2.33;;;2.13;;
42118;SDS011;27783;42.782;23.274;2024-03-07T12:14:56;3.30;;;3.00;;
42118;SDS011;27783;42.782;23.274;2024-03-07T12:17:22;3.20;;;2.95;;
42118;SDS011;27783;42.782;23.274;2024-03-07T12:19:48;2.67;;;2.47;;
42118;SDS011;27783;42.782;23.274;2024-03-07T12:22:18;3.10;;;2.80;;
42118;SDS011;27783;42.782;23.274;2024-03-07T12:25:08;3.63;;;3.33;;
42118;SDS011;27783;42.782;23.274;2024-03-07T12:27:35;4.25;;;3.72;;
42118;SDS011;27783;42.782;23.274;2024-03-07T12:30:03;4.40;;;4.00;;
42118;SDS011;27783;42.782;23.274;2024-03-07T12:32:46;4.55;;;4.15;;
42118;SDS011;27783;42.782;23.274;2024-03-07T12:35:14;5.72;;;5.20;;
42118;SDS011;27783;42.782;23.274;2024-03-07T12:37:40;5.88;;;5.38;;
42118;SDS011;27783;42.782;23.274;2024-03-07T12:40:16;5.53;;;5.03;;
42118;SDS011;27783;42.782;23.274;2024-03-07T12:42:50;6.85;;;6.22;;
42118;SDS011;27783;42.782;23.274;2024-03-07T12:45:18;7.35;;;6.78;;
42118;SDS011;27783;42.782;23.274;2024-03-07T12:47:46;8.40;;;7.72;;
42118;SDS011;27783;42.782;23.274;2024-03-07T12:50:18;7.65;;;6.93;;
42118;SDS011;27783;42.782;23.274;2024-03-07T12:52:45;8.70;;;8.00;;
42118;SDS011;27783;42.782;23.274;2024-03-07T12:55:14;9.45;;;8.65;;
42118;SDS011;27783;42.782;23.274;2024-03-07T12:57:43;8.73;;;7.93;;
42118;SDS011;27783;42.782;23.274;2024-03-07T13:00:10;14.77;;;13.48;;
42118;SDS011;27783;42.782;23.274;2024-03-07T13:02:44;9.82;;;8.93;;
42118;SDS011;27783;42.782;23.274;2024-03-07T13:05:10;8.82;;;8.05;;
42118;SDS011;27783;42.782;23.274;2024-03-07T13:07:43;8.10;;;7.35;;
42118;SDS011;27783;42.782;23.274;2024-03-07T13:10:11;8.50;;;7.80;;
42118;SDS011;27783;42.782;23.274;2024-03-07T13:12:39;5.88;;;5.13;;
42118;SDS011;27783;42.782;23.274;2024-03-07T13:15:07;3.83;;;1.95;;
42118;SDS011;27783;42.782;23.274;2024-03-07T13:17:36;7.40;;;2.63;;
42118;SDS011;27783;42.782;23.274;2024-03-07T13:20:01;4.78;;;2.28;;
42118;SDS011;27783;42.782;23.274;2024-03-07T13:22:27;3.42;;;1.67;;
42118;SDS011;27783;42.782;23.274;2024-03-07T13:24:52;2.35;;;1.73;;
42118;SDS011;27783;42.782;23.274;2024-03-07T13:27:18;4.25;;;2.67;;
42118;SDS011;27783;42.782;23.274;2024-03-07T13:29:53;9.30;;;4.47;;
42118;SDS011;27783;42.782;23.274;2024-03-07T13:32:18;6.60;;;5.38;;
42118;SDS011;27783;42.782;23.274;2024-03-07T13:34:43;5.18;;;4.53;;
42118;SDS011;27783;42.782;23.274;2024-03-07T13:37:10;4.70;;;3.25;;
42118;SDS011;27783;42.782;23.274;2024-03-07T13:39:38;3.33;;;2.88;;
42118;SDS011;27783;42.782;23.274;2024-03-07T13:42:04;2.78;;;1.83;;
42118;SDS011;27783;42.782;23.274;2024-03-07T13:44:30;3.08;;;1.73;;
42118;SDS011;27783;42.782;23.274;2024-03-07T13:46:55;6.75;;;2.10;;
42118;SDS011;27783;42.782;23.274;2024-03-07T13:49:24;4.13;;;2.10;;
42118;SDS011;27783;42.782;23.274;2024-03-07T13:51:53;4.10;;;2.38;;
42118;SDS011;27783;42.782;23.274;2024-03-07T13:54:25;1.90;;;1.55;;
42118;SDS011;27783;42.782;23.274;2024-03-07T13:57:08;3.13;;;1.90;;
42118;SDS011;27783;42.782;23.274;2024-03-07T14:05:34;21.75;;;20.05;;
42118;SDS011;27783;42.782;23.274;2024-03-07T14:08:24;10.80;;;10.05;;
42118;SDS011;27783;42.782;23.274;2024-03-07T14:27:53;5.30;;;4.28;;
42118;SDS011;27783;42.782;23.274;2024-03-07T14:30:51;12.00;;;5.23;;
42118;SDS011;27783;42.782;23.274;2024-03-07T14:33:28;8.88;;;7.97;;
42118;SDS011;27783;42.782;23.274;2024-03-07T14:36:11;18.73;;;13.18;;
42118;SDS011;27783;42.782;23.274;2024-03-07T14:38:54;17.05;;;8.25;;
42118;SDS011;27783;42.782;23.274;2024-03-07T14:44:17;32.55;;;26.42;;
42118;SDS011;27783;42.782;23.274;2024-03-07T14:46:43;22.38;;;20.13;;
42118;SDS011;27783;42.782;23.274;2024-03-07T14:49:13;16.83;;;15.23;;
42118;SDS011;27783;42.782;23.274;2024-03-07T14:51:43;34.28;;;23.00;;
42118;SDS011;27783;42.782;23.274;2024-03-07T14:54:10;38.50;;;24.85;;
42118;SDS011;27783;42.782;23.274;2024-03-07T14:56:36;27.88;;;21.55;;
42118;SDS011;27783;42.782;23.274;2024-03-07T14:59:01;31.80;;;26.85;;
42118;SDS011;27783;42.782;23.274;2024-03-07T15:01:29;28.88;;;25.42;;
42118;SDS011;27783;42.782;23.274;2024-03-07T15:03:56;29.30;;;26.23;;
42118;SDS011;27783;42.782;23.274;2024-03-07T15:06:22;27.13;;;24.43;;
42118;SDS011;27783;42.782;23.274;2024-03-07T15:08:48;50.65;;;41.00;;
42118;SDS011;27783;42.782;23.274;2024-03-07T15:11:19;23.50;;;21.02;;
42118;SDS011;27783;42.782;23.274;2024-03-07T15:13:48;48.40;;;43.13;;
42118;SDS011;27783;42.782;23.274;2024-03-07T15:16:14;12.82;;;11.52;;